Flight Track Log - Related Links

Times and Time Zones

All times are in EDT time to prevent confusion due to time zone crossing. See the UPS5904 flight status page for this flight to view local times or setup timezone preferences in your user account.

Time Position Orientation Groundspeed Altitude Reporting Facility
EDT Latitude Longitude Course Direction KTS MPH feet Rate Location/Type
Fri 01:22:00 AM 50.9185 6.9867 298° West  Level Estimated
Fri 01:23:00 AM 50.9710 6.8302 298° West  Level Estimated
Fri 01:24:00 AM 51.0232 6.6734 298° West  Level Estimated
Fri 01:25:00 AM 51.0751 6.5163 298° West  Level Estimated
Fri 01:26:00 AM 51.1269 6.3588 298° West  Level Estimated
Fri 01:27:00 AM 51.1785 6.2009 298° West  Level Estimated
Fri 01:28:00 AM 51.2299 6.0427 297° West  Level Estimated
Fri 01:29:00 AM 51.2810 5.8842 297° West  Level Estimated
Fri 01:30:00 AM 51.3319 5.7253 297° West  Level Estimated
Fri 01:31:00 AM 51.3826 5.5660 297° West  Level Estimated
Fri 01:32:00 AM 51.4331 5.4064 297° West  Level Estimated
Fri 01:33:00 AM 51.4834 5.2464 297° West  Level Estimated
Fri 01:34:00 AM 51.5335 5.0861 297° West  Level Estimated
Fri 01:35:00 AM 51.5833 4.9254 297° West  Level Estimated
Fri 01:36:00 AM 51.6329 4.7644 296° West  Level Estimated
Fri 01:37:00 AM 51.6823 4.6030 296° West  Level Estimated
Fri 01:38:00 AM 51.7315 4.4413 296° West  Level Estimated
Fri 01:39:00 AM 51.7805 4.2792 296° West  Level Estimated
Fri 01:40:00 AM 51.8292 4.1168 296° West  Level Estimated
Fri 01:41:00 AM 51.8777 3.9540 296° West  Level Estimated
Fri 01:42:00 AM 51.9260 3.7909 296° West  Level Estimated
Fri 01:43:00 AM 51.9741 3.6274 296° West  Level Estimated
Fri 01:44:00 AM 52.0219 3.4636 295° West  Level Estimated
Fri 01:45:00 AM 52.0695 3.2994 295° West  Level Estimated
Fri 01:46:00 AM 52.1169 3.1349 295° West  Level Estimated
Fri 01:47:00 AM 52.1640 2.9700 295° West  Level Estimated
Fri 01:48:00 AM 52.2110 2.8048 295° West  Level Estimated
Fri 01:49:00 AM 52.2576 2.6392 295° West  Level Estimated
Fri 01:50:00 AM 52.3041 2.4732 295° West  Level Estimated
Fri 01:51:00 AM 52.3503 2.3070 295° West  Level Estimated
Fri 01:52:00 AM 52.3963 2.1404 294° West  Level Estimated
Fri 01:53:00 AM 52.4421 1.9734 294° West  Level Estimated
Fri 01:54:00 AM 52.4876 1.8061 294° West  Level Estimated
Fri 01:55:00 AM 52.5329 1.6384 294° West  Level Estimated
Fri 01:56:00 AM 52.5779 1.4704 294° West  Level Estimated
Fri 01:57:00 AM 52.6227 1.3021 294° West  Level Estimated
Fri 01:58:00 AM 52.6673 1.1334 294° West  Level Estimated
Fri 01:59:00 AM 52.7116 0.9643 293° West  Level Estimated
Fri 02:00:00 AM 52.7557 0.7950 293° West  Level Estimated
Fri 02:01:00 AM 52.7995 0.6252 293° West  Level Estimated
Fri 02:02:00 AM 52.8431 0.4552 293° West  Level Estimated
Fri 02:03:00 AM 52.8872 0.2820 293° West  Level Estimated
Fri 02:04:00 AM 52.9310 0.1085 293° West  Level Estimated
Fri 02:05:00 AM 52.9745 -0.0654 293° West  Level Estimated
Fri 02:06:00 AM 53.0178 -0.2396 293° West  Level Estimated
Fri 02:07:00 AM 53.0609 -0.4142 292° West  Level Estimated
Fri 02:08:00 AM 53.1037 -0.5891 292° West  Level Estimated
Fri 02:09:00 AM 53.1462 -0.7644 292° West  Level Estimated
Fri 02:10:00 AM 53.1885 -0.9400 292° West  Level Estimated
Fri 02:11:00 AM 53.2305 -1.1159 292° West  Level Estimated
Fri 02:12:00 AM 53.2722 -1.2922 292° West  Level Estimated
Fri 02:13:00 AM 53.3137 -1.4689 292° West  Level Estimated
Fri 02:14:00 AM 53.3549 -1.6459 291° West  Level Estimated
Fri 02:15:00 AM 53.3959 -1.8232 291° West  Level Estimated
Fri 02:16:00 AM 53.4366 -2.0009 291° West  Level Estimated
Fri 02:17:00 AM 53.4771 -2.1789 291° West  Level Estimated
Fri 02:18:00 AM 53.5173 -2.3572 291° West  Level Estimated
Fri 02:19:00 AM 53.5572 -2.5359 291° West  Level Estimated
Fri 02:20:00 AM 53.5968 -2.7150 291° West  Level Estimated
Fri 02:21:00 AM 53.6362 -2.8943 290° West  Level Estimated
Fri 02:22:00 AM 53.6753 -3.0740 290° West  Level Estimated
Fri 02:23:00 AM 53.7141 -3.2540 290° West  Level Estimated
Fri 02:24:00 AM 53.7527 -3.4344 290° West  Level Estimated
Fri 02:25:00 AM 53.7910 -3.6151 290° West  Level Estimated
Fri 02:26:00 AM 53.8290 -3.7961 290° West  Level Estimated
Fri 02:27:00 AM 53.8668 -3.9774 290° West  Level Estimated
Fri 02:28:00 AM 53.9043 -4.1591 289° West  Level Estimated
Fri 02:29:00 AM 53.9415 -4.3411 289° West  Level Estimated
Fri 02:30:00 AM 53.9784 -4.5234 289° West  Level Estimated
Fri 02:31:00 AM 54.0150 -4.7061 289° West  Level Estimated
Fri 02:32:00 AM 54.0514 -4.8890 289° West  Level Estimated
Fri 02:33:00 AM 54.0875 -5.0723 289° West  Level Estimated
Fri 02:34:00 AM 54.1233 -5.2559 288° West  Level Estimated
Fri 02:35:00 AM 54.1589 -5.4398 288° West  Level Estimated
Fri 02:36:00 AM 54.1941 -5.6241 288° West  Level Estimated
Fri 02:37:00 AM 54.2291 -5.8086 288° West  Level Estimated
Fri 02:38:00 AM 54.2638 -5.9935 288° West  Level Estimated
Fri 02:39:00 AM 54.2982 -6.1786 288° West  Level Estimated
Fri 02:40:00 AM 54.3323 -6.3641 288° West  Level Estimated
Fri 02:41:00 AM 54.3662 -6.5499 287° West  Level Estimated
Fri 02:42:00 AM 54.3997 -6.7360 287° West  Level Estimated
Fri 02:43:00 AM 54.4330 -6.9224 287° West  Level Estimated
Fri 02:44:00 AM 54.4660 -7.1091 287° West  Level Estimated
Fri 02:45:00 AM 54.4987 -7.2961 287° West  Level Estimated
Fri 02:46:00 AM 54.5311 -7.4834 287° West  Level Estimated
Fri 02:47:00 AM 54.5632 -7.6709 287° West  Level Estimated
Fri 02:48:00 AM 54.5950 -7.8588 286° West  Level Estimated
Fri 02:49:00 AM 54.6265 -8.0470 286° West  Level Estimated
Fri 02:50:00 AM 54.6578 -8.2355 286° West  Level Estimated
Fri 02:51:00 AM 54.6887 -8.4242 286° West  Level Estimated
Fri 02:52:00 AM 54.7194 -8.6132 286° West  Level Estimated
Fri 02:53:00 AM 54.7497 -8.8026 286° West  Level Estimated
Fri 02:54:00 AM 54.7798 -8.9922 285° West  Level Estimated
Fri 02:55:00 AM 54.8096 -9.1821 285° West  Level Estimated
Fri 02:56:00 AM 54.8390 -9.3722 285° West  Level Estimated
Fri 02:57:00 AM 54.8682 -9.5627 285° West  Level Estimated
Fri 02:58:00 AM 54.8971 -9.7534 285° West  Level Estimated
Fri 02:59:00 AM 54.9257 -9.9444 285° West  Level Estimated
Fri 03:00:00 AM 54.9539 -10.1357 285° West  Level Estimated
Fri 03:01:00 AM 54.9819 -10.3272 284° West  Level Estimated
Fri 03:02:00 AM 55.0096 -10.5190 284° West  Level Estimated
Fri 03:03:00 AM 55.0370 -10.7110 284° West  Level Estimated
Fri 03:04:00 AM 55.0640 -10.9034 284° West  Level Estimated
Fri 03:05:00 AM 55.0908 -11.0959 284° West  Level Estimated
Fri 03:06:00 AM 55.1173 -11.2888 284° West  Level Estimated
Fri 03:07:00 AM 55.1434 -11.4819 283° West  Level Estimated
Fri 03:08:00 AM 55.1693 -11.6752 283° West  Level Estimated
Fri 03:09:00 AM 55.1948 -11.8688 283° West  Level Estimated
Fri 03:10:00 AM 55.2201 -12.0626 283° West  Level Estimated
Fri 03:11:00 AM 55.2450 -12.2567 283° West  Level Estimated
Fri 03:12:00 AM 55.2696 -12.4510 283° West  Level Estimated
Fri 03:13:00 AM 55.2939 -12.6456 282° West  Level Estimated
Fri 03:14:00 AM 55.3179 -12.8404 282° West  Level Estimated
Fri 03:15:00 AM 55.3416 -13.0354 282° West  Level Estimated
Fri 03:16:00 AM 55.3650 -13.2307 282° West  Level Estimated
Fri 03:17:00 AM 55.3881 -13.4262 282° West  Level Estimated
Fri 03:18:00 AM 55.4108 -13.6219 282° West  Level Estimated
Fri 03:19:00 AM 55.4333 -13.8179 281° West  Level Estimated
Fri 03:20:00 AM 55.4554 -14.0140 281° West  Level Estimated
Fri 03:21:00 AM 55.4772 -14.2104 281° West  Level Estimated
Fri 03:22:00 AM 55.4987 -14.4070 281° West  Level Estimated
Fri 03:23:00 AM 55.5199 -14.6038 281° West  Level Estimated
Fri 03:24:00 AM 55.5408 -14.8009 281° West  Level Estimated
Fri 03:25:00 AM 55.5613 -14.9981 281° West  Level Estimated
Fri 03:26:00 AM 55.5816 -15.1955 280° West  Level Estimated
Fri 03:27:00 AM 55.6015 -15.3932 280° West  Level Estimated
Fri 03:28:00 AM 55.6211 -15.5910 280° West  Level Estimated
Fri 03:29:00 AM 55.6404 -15.7891 280° West  Level Estimated
Fri 03:30:00 AM 55.6593 -15.9873 280° West  Level Estimated
Fri 03:31:00 AM 55.6780 -16.1857 280° West  Level Estimated
Fri 03:32:00 AM 55.6963 -16.3843 279° West  Level Estimated
Fri 03:33:00 AM 55.7143 -16.5831 279° West  Level Estimated
Fri 03:34:00 AM 55.7320 -16.7821 279° West  Level Estimated
Fri 03:35:00 AM 55.7494 -16.9812 279° West  Level Estimated
Fri 03:36:00 AM 55.7664 -17.1806 279° West  Level Estimated
Fri 03:37:00 AM 55.7831 -17.3801 279° West  Level Estimated
Fri 03:38:00 AM 55.7995 -17.5797 278° West  Level Estimated
Fri 03:39:00 AM 55.8156 -17.7796 278° West  Level Estimated
Fri 03:40:00 AM 55.8313 -17.9796 278° West  Level Estimated
Fri 03:41:00 AM 55.8467 -18.1797 278° West  Level Estimated
Fri 03:42:00 AM 55.8619 -18.3801 278° West  Level Estimated
Fri 03:43:00 AM 55.8766 -18.5805 278° West  Level Estimated
Fri 03:44:00 AM 55.8911 -18.7811 277° West  Level Estimated
Fri 03:45:00 AM 55.9052 -18.9819 277° West  Level Estimated
Fri 03:46:00 AM 55.9190 -19.1828 277° West  Level Estimated
Fri 03:47:00 AM 55.9324 -19.3839 277° West  Level Estimated
Fri 03:48:00 AM 55.9456 -19.5851 277° West  Level Estimated
Fri 03:49:00 AM 55.9584 -19.7864 277° West  Level Estimated
Fri 03:50:00 AM 55.9709 -19.9879 276° West  Level Estimated
Fri 03:51:00 AM 55.9830 -20.1895 276° West  Level Estimated
Fri 03:52:00 AM 55.9948 -20.3912 276° West  Level Estimated
Fri 03:53:00 AM 56.0063 -20.5930 276° West  Level Estimated
Fri 03:54:00 AM 56.0175 -20.7950 276° West  Level Estimated
Fri 03:55:00 AM 56.0283 -20.9970 276° West  Level Estimated
Fri 03:56:00 AM 56.0388 -21.1992 275° West  Level Estimated
Fri 03:57:00 AM 56.0490 -21.4015 275° West  Level Estimated
Fri 03:58:00 AM 56.0588 -21.6039 275° West  Level Estimated
Fri 03:59:00 AM 56.0683 -21.8064 275° West  Level Estimated
Fri 04:00:00 AM 56.0775 -22.0090 275° West  Level Estimated
Fri 04:01:00 AM 56.0864 -22.2117 275° West  Level Estimated
Fri 04:02:00 AM 56.0949 -22.4144 274° West  Level Estimated
Fri 04:03:00 AM 56.1031 -22.6173 274° West  Level Estimated
Fri 04:04:00 AM 56.1109 -22.8203 274° West  Level Estimated
Fri 04:05:00 AM 56.1184 -23.0233 274° West  Level Estimated
Fri 04:06:00 AM 56.1256 -23.2264 274° West  Level Estimated
Fri 04:07:00 AM 56.1324 -23.4296 274° West  Level Estimated
Fri 04:08:00 AM 56.1390 -23.6329 273° West  Level Estimated
Fri 04:09:00 AM 56.1451 -23.8362 273° West  Level Estimated
Fri 04:10:00 AM 56.1510 -24.0396 273° West  Level Estimated
Fri 04:11:00 AM 56.1565 -24.2430 273° West  Level Estimated
Fri 04:12:00 AM 56.1617 -24.4465 273° West  Level Estimated
Fri 04:13:00 AM 56.1665 -24.6501 273° West  Level Estimated
Fri 04:14:00 AM 56.1710 -24.8537 272° West  Level Estimated
Fri 04:15:00 AM 56.1752 -25.0573 272° West  Level Estimated
Fri 04:16:00 AM 56.1790 -25.2610 272° West  Level Estimated
Fri 04:17:00 AM 56.1825 -25.4648 272° West  Level Estimated
Fri 04:18:00 AM 56.1857 -25.6685 272° West  Level Estimated
Fri 04:19:00 AM 56.1886 -25.8723 272° West  Level Estimated
Fri 04:20:00 AM 56.1911 -26.0762 271° West  Level Estimated
Fri 04:21:00 AM 56.1932 -26.2800 271° West  Level Estimated
Fri 04:22:00 AM 56.1950 -26.4839 271° West  Level Estimated
Fri 04:23:00 AM 56.1965 -26.6878 271° West  Level Estimated
Fri 04:24:00 AM 56.1977 -26.8917 271° West  Level Estimated
Fri 04:25:00 AM 56.1985 -27.0956 271° West  Level Estimated
Fri 04:26:00 AM 56.1990 -27.2995 270° West  Level Estimated
Fri 04:27:00 AM 56.1992 -27.5035 270° West  Level Estimated
Fri 04:28:00 AM 56.1990 -27.7074 270° West  Level Estimated
Fri 04:29:00 AM 56.1985 -27.9113 270° West  Level Estimated
Fri 04:30:00 AM 56.1976 -28.1152 270° West  Level Estimated
Fri 04:31:00 AM 56.1964 -28.3191 269° West  Level Estimated
Fri 04:32:00 AM 56.1949 -28.5230 269° West  Level Estimated
Fri 04:33:00 AM 56.1930 -28.7269 269° West  Level Estimated
Fri 04:34:00 AM 56.1908 -28.9307 269° West  Level Estimated
Fri 04:35:00 AM 56.1883 -29.1346 269° West  Level Estimated
Fri 04:36:00 AM 56.1854 -29.3384 269° West  Level Estimated
Fri 04:37:00 AM 56.1822 -29.5422 268° West  Level Estimated
Fri 04:38:00 AM 56.1787 -29.7459 268° West  Level Estimated
Fri 04:39:00 AM 56.1748 -29.9496 268° West  Level Estimated
Fri 04:40:00 AM 56.1706 -30.1532 268° West  Level Estimated
Fri 04:41:00 AM 56.1661 -30.3568 268° West  Level Estimated
Fri 04:42:00 AM 56.1612 -30.5604 268° West  Level Estimated
Fri 04:43:00 AM 56.1560 -30.7639 267° West  Level Estimated
Fri 04:44:00 AM 56.1504 -30.9673 267° West  Level Estimated
Fri 04:45:00 AM 56.1446 -31.1707 267° West  Level Estimated
Fri 04:46:00 AM 56.1384 -31.3740 267° West  Level Estimated
Fri 04:47:00 AM 56.1318 -31.5773 267° West  Level Estimated
Fri 04:48:00 AM 56.1249 -31.7804 267° West  Level Estimated
Fri 04:49:00 AM 56.1177 -31.9835 266° West  Level Estimated
Fri 04:50:00 AM 56.1102 -32.1866 266° West  Level Estimated
Fri 04:51:00 AM 56.1023 -32.3895 266° West  Level Estimated
Fri 04:52:00 AM 56.0941 -32.5924 266° West  Level Estimated
Fri 04:53:00 AM 56.0855 -32.7952 266° West  Level Estimated
Fri 04:54:00 AM 56.0766 -32.9978 266° West  Level Estimated
Fri 04:55:00 AM 56.0674 -33.2004 265° West  Level Estimated
Fri 04:56:00 AM 56.0579 -33.4029 265° West  Level Estimated
Fri 04:57:00 AM 56.0480 -33.6053 265° West  Level Estimated
Fri 04:58:00 AM 56.0378 -33.8076 265° West  Level Estimated
Fri 04:59:00 AM 56.0273 -34.0097 265° West  Level Estimated
Fri 05:00:00 AM 56.0164 -34.2118 265° West  Level Estimated
Fri 05:01:00 AM 56.0052 -34.4137 264° West  Level Estimated
Fri 05:02:00 AM 55.9937 -34.6156 264° West  Level Estimated
Fri 05:03:00 AM 55.9819 -34.8173 264° West  Level Estimated
Fri 05:04:00 AM 55.9697 -35.0188 264° West  Level Estimated
Fri 05:05:00 AM 55.9572 -35.2203 264° West  Level Estimated
Fri 05:06:00 AM 55.9444 -35.4216 264° West  Level Estimated
Fri 05:07:00 AM 55.9312 -35.6228 263° West  Level Estimated
Fri 05:08:00 AM 55.9177 -35.8238 263° West  Level Estimated
Fri 05:09:00 AM 55.9039 -36.0247 263° West  Level Estimated
Fri 05:10:00 AM 55.8897 -36.2255 263° West  Level Estimated
Fri 05:11:00 AM 55.8753 -36.4261 263° West  Level Estimated
Fri 05:12:00 AM 55.8605 -36.6266 263° West  Level Estimated
Fri 05:13:00 AM 55.8453 -36.8269 262° West  Level Estimated
Fri 05:14:00 AM 55.8299 -37.0270 262° West  Level Estimated
Fri 05:15:00 AM 55.8141 -37.2270 262° West  Level Estimated
Fri 05:16:00 AM 55.7980 -37.4268 262° West  Level Estimated
Fri 05:17:00 AM 55.7816 -37.6265 262° West  Level Estimated
Fri 05:18:00 AM 55.7648 -37.8260 262° West  Level Estimated
Fri 05:19:00 AM 55.7477 -38.0253 261° West  Level Estimated
Fri 05:20:00 AM 55.7304 -38.2244 261° West  Level Estimated
Fri 05:21:00 AM 55.7127 -38.4234 261° West  Level Estimated
Fri 05:22:00 AM 55.6946 -38.6222 261° West  Level Estimated
Fri 05:23:00 AM 55.6763 -38.8207 261° West  Level Estimated
Fri 05:24:00 AM 55.6576 -39.0191 261° West  Level Estimated
Fri 05:25:00 AM 55.6386 -39.2174 260° West  Level Estimated
Fri 05:26:00 AM 55.6193 -39.4154 260° West  Level Estimated
Fri 05:27:00 AM 55.5996 -39.6132 260° West  Level Estimated
Fri 05:28:00 AM 55.5797 -39.8108 260° West  Level Estimated
Fri 05:29:00 AM 55.5594 -40.0082 260° West  Level Estimated
Fri 05:30:00 AM 55.5388 -40.2054 260° West  Level Estimated
Fri 05:31:00 AM 55.5179 -40.4025 259° West  Level Estimated
Fri 05:32:00 AM 55.4967 -40.5993 259° West  Level Estimated
Fri 05:33:00 AM 55.4752 -40.7958 259° West  Level Estimated
Fri 05:34:00 AM 55.4533 -40.9922 259° West  Level Estimated
Fri 05:35:00 AM 55.4312 -41.1884 259° West  Level Estimated
Fri 05:36:00 AM 55.4087 -41.3843 259° West  Level Estimated
Fri 05:37:00 AM 55.3859 -41.5800 258° West  Level Estimated
Fri 05:38:00 AM 55.3628 -41.7755 258° West  Level Estimated
Fri 05:39:00 AM 55.3394 -41.9707 258° West  Level Estimated
Fri 05:40:00 AM 55.3157 -42.1657 258° West  Level Estimated
Fri 05:41:00 AM 55.2916 -42.3605 258° West  Level Estimated
Fri 05:42:00 AM 55.2673 -42.5550 258° West  Level Estimated
Fri 05:43:00 AM 55.2427 -42.7493 258° West  Level Estimated
Fri 05:44:00 AM 55.2177 -42.9434 257° West  Level Estimated
Fri 05:45:00 AM 55.1924 -43.1372 257° West  Level Estimated
Fri 05:46:00 AM 55.1669 -43.3308 257° West  Level Estimated
Fri 05:47:00 AM 55.1410 -43.5241 257° West  Level Estimated
Fri 05:48:00 AM 55.1148 -43.7171 257° West  Level Estimated
Fri 05:49:00 AM 55.0883 -43.9100 257° West  Level Estimated
Fri 05:50:00 AM 55.0615 -44.1025 256° West  Level Estimated
Fri 05:51:00 AM 55.0344 -44.2948 256° West  Level Estimated
Fri 05:52:00 AM 55.0070 -44.4868 256° West  Level Estimated
Fri 05:53:00 AM 54.9793 -44.6786 256° West  Level Estimated
Fri 05:54:00 AM 54.9513 -44.8701 256° West  Level Estimated
Fri 05:55:00 AM 54.9230 -45.0613 256° West  Level Estimated
Fri 05:56:00 AM 54.8944 -45.2523 255° West  Level Estimated
Fri 05:57:00 AM 54.8655 -45.4430 255° West  Level Estimated
Fri 05:58:00 AM 54.8363 -45.6334 255° West  Level Estimated
Fri 05:59:00 AM 54.8068 -45.8235 255° West  Level Estimated
Fri 06:00:00 AM 54.7770 -46.0134 255° West  Level Estimated
Fri 06:01:00 AM 54.7469 -46.2030 255° West  Level Estimated
Fri 06:02:00 AM 54.7165 -46.3923 255° West  Level Estimated
Fri 06:03:00 AM 54.6858 -46.5813 254° West  Level Estimated
Fri 06:04:00 AM 54.6549 -46.7700 254° West  Level Estimated
Fri 06:05:00 AM 54.6236 -46.9585 254° West  Level Estimated
Fri 06:06:00 AM 54.5920 -47.1466 254° West  Level Estimated
Fri 06:07:00 AM 54.5602 -47.3345 254° West  Level Estimated
Fri 06:08:00 AM 54.5281 -47.5220 254° West  Level Estimated
Fri 06:09:00 AM 54.4956 -47.7093 253° West  Level Estimated
Fri 06:10:00 AM 54.4629 -47.8963 253° West  Level Estimated
Fri 06:11:00 AM 54.4299 -48.0829 253° West  Level Estimated
Fri 06:12:00 AM 54.3966 -48.2693 253° West  Level Estimated
Fri 06:13:00 AM 54.3630 -48.4553 253° West  Level Estimated
Fri 06:14:00 AM 54.3292 -48.6411 253° West  Level Estimated
Fri 06:15:00 AM 54.2950 -48.8265 253° West  Level Estimated
Fri 06:16:00 AM 54.2606 -49.0117 252° West  Level Estimated
Fri 06:17:00 AM 54.2258 -49.1965 252° West  Level Estimated
Fri 06:18:00 AM 54.1908 -49.3810 252° West  Level Estimated
Fri 06:19:00 AM 54.1556 -49.5652 252° West  Level Estimated
Fri 06:20:00 AM 54.1200 -49.7491 252° West  Level Estimated
Fri 06:21:00 AM 54.0842 -49.9327 252° West  Level Estimated
Fri 06:22:00 AM 54.0480 -50.1159 252° West  Level Estimated
Fri 06:23:00 AM 54.0116 -50.2989 251° West  Level Estimated
Fri 06:24:00 AM 53.9750 -50.4815 251° West  Level Estimated
Fri 06:25:00 AM 53.9380 -50.6638 251° West  Level Estimated
Fri 06:26:00 AM 53.9008 -50.8457 251° West  Level Estimated
Fri 06:27:00 AM 53.8633 -51.0274 251° West  Level Estimated
Fri 06:28:00 AM 53.8255 -51.2087 251° West  Level Estimated
Fri 06:29:00 AM 53.7874 -51.3897 250° West  Level Estimated
Fri 06:30:00 AM 53.7491 -51.5704 250° West  Level Estimated
Fri 06:31:00 AM 53.7105 -51.7507 250° West  Level Estimated
Fri 06:32:00 AM 53.6717 -51.9307 250° West  Level Estimated
Fri 06:33:00 AM 53.6325 -52.1103 250° West  Level Estimated
Fri 06:34:00 AM 53.5932 -52.2897 250° West  Level Estimated
Fri 06:35:00 AM 53.5535 -52.4687 250° West  Level Estimated
Fri 06:36:00 AM 53.5135 -52.6473 249° West  Level Estimated
Fri 06:37:00 AM 53.4733 -52.8256 249° West  Level Estimated
Fri 06:38:00 AM 53.4329 -53.0036 249° West  Level Estimated
Fri 06:39:00 AM 53.3921 -53.1813 249° West  Level Estimated
Fri 06:40:00 AM 53.3512 -53.3586 249° West  Level Estimated
Fri 06:41:00 AM 53.3099 -53.5355 249° West  Level Estimated
Fri 06:42:00 AM 53.2684 -53.7121 249° West  Level Estimated
Fri 06:43:00 AM 53.2266 -53.8884 248° West  Level Estimated
Fri 06:44:00 AM 53.1846 -54.0643 248° West  Level Estimated
Fri 06:45:00 AM 53.1423 -54.2399 248° West  Level Estimated
Fri 06:46:00 AM 53.0997 -54.4152 248° West  Level Estimated
Fri 06:47:00 AM 53.0569 -54.5900 248° West  Level Estimated
Fri 06:48:00 AM 53.0138 -54.7646 248° West  Level Estimated
Fri 06:49:00 AM 52.9705 -54.9388 248° West  Level Estimated
Fri 06:50:00 AM 52.9269 -55.1126 247° West  Level Estimated
Fri 06:51:00 AM 52.8831 -55.2861 247° West  Level Estimated
Fri 06:52:00 AM 52.8390 -55.4593 247° West  Level Estimated
Fri 06:53:00 AM 52.7947 -55.6320 247° West  Level Estimated
Fri 06:54:00 AM 52.7501 -55.8045 247° West  Level Estimated
Fri 06:55:00 AM 52.7053 -55.9766 247° West  Level Estimated
Fri 06:56:00 AM 52.6602 -56.1483 247° West  Level Estimated
Fri 06:57:00 AM 52.6149 -56.3196 247° West  Level Estimated
Fri 06:58:00 AM 52.5693 -56.4907 246° West  Level Estimated
Fri 06:59:00 AM 52.5235 -56.6613 246° West  Level Estimated
Fri 07:00:00 AM 52.4774 -56.8316 246° West  Level Estimated
Fri 07:01:00 AM 52.4311 -57.0016 246° West  Level Estimated
Fri 07:02:00 AM 52.3845 -57.1712 246° West  Level Estimated
Fri 07:03:00 AM 52.3377 -57.3404 246° West  Level Estimated
Fri 07:04:00 AM 52.2907 -57.5093 246° West  Level Estimated
Fri 07:05:00 AM 52.2434 -57.6778 245° Southwest  Level Estimated
Fri 07:06:00 AM 52.1959 -57.8459 245° Southwest  Level Estimated
Fri 07:07:00 AM 52.1481 -58.0137 245° Southwest  Level Estimated
Fri 07:08:00 AM 52.1001 -58.1811 245° Southwest  Level Estimated
Fri 07:09:00 AM 52.0519 -58.3482 245° Southwest  Level Estimated
Fri 07:10:00 AM 52.0034 -58.5149 245° Southwest  Level Estimated
Fri 07:11:00 AM 51.9547 -58.6813 245° Southwest  Level Estimated
Fri 07:12:00 AM 51.9058 -58.8473 245° Southwest  Level Estimated
Fri 07:13:00 AM 51.8566 -59.0129 244° Southwest  Level Estimated
Fri 07:14:00 AM 51.8072 -59.1782 244° Southwest  Level Estimated
Fri 07:15:00 AM 51.7576 -59.3430 244° Southwest  Level Estimated
Fri 07:16:00 AM 51.7077 -59.5076 244° Southwest  Level Estimated
Fri 07:17:00 AM 51.6577 -59.6718 244° Southwest  Level Estimated
Fri 07:18:00 AM 51.6073 -59.8356 244° Southwest  Level Estimated
Fri 07:19:00 AM 51.5568 -59.9990 244° Southwest  Level Estimated
Fri 07:20:00 AM 51.5060 -60.1621 243° Southwest  Level Estimated
Fri 07:21:00 AM 51.4550 -60.3248 243° Southwest  Level Estimated
Fri 07:22:00 AM 51.4038 -60.4872 243° Southwest  Level Estimated
Fri 07:23:00 AM 51.3523 -60.6492 243° Southwest  Level Estimated
Fri 07:24:00 AM 51.3007 -60.8108 243° Southwest  Level Estimated
Fri 07:25:00 AM 51.2488 -60.9721 243° Southwest  Level Estimated
Fri 07:26:00 AM 51.1967 -61.1330 243° Southwest  Level Estimated
Fri 07:27:00 AM 51.1443 -61.2935 243° Southwest  Level Estimated
Fri 07:28:00 AM 51.0918 -61.4537 242° Southwest  Level Estimated
Fri 07:29:00 AM 51.0390 -61.6135 242° Southwest  Level Estimated
Fri 07:30:00 AM 50.9860 -61.7729 242° Southwest  Level Estimated
Fri 07:31:00 AM 50.9328 -61.9320 242° Southwest  Level Estimated
Fri 07:32:00 AM 50.8794 -62.0907 242° Southwest  Level Estimated
Fri 07:33:00 AM 50.8258 -62.2491 242° Southwest  Level Estimated
Fri 07:34:00 AM 50.7719 -62.4070 242° Southwest  Level Estimated
Fri 07:35:00 AM 50.7179 -62.5647 242° Southwest  Level Estimated
Fri 07:36:00 AM 50.6636 -62.7219 241° Southwest  Level Estimated
Fri 07:37:00 AM 50.6091 -62.8788 241° Southwest  Level Estimated
Fri 07:38:00 AM 50.5544 -63.0353 241° Southwest  Level Estimated
Fri 07:39:00 AM 50.4995 -63.1915 241° Southwest  Level Estimated
Fri 07:40:00 AM 50.4444 -63.3473 241° Southwest  Level Estimated
Fri 07:41:00 AM 50.3891 -63.5027 241° Southwest  Level Estimated
Fri 07:42:00 AM 50.3336 -63.6578 241° Southwest  Level Estimated
Fri 07:43:00 AM 50.2779 -63.8125 241° Southwest  Level Estimated
Fri 07:44:00 AM 50.2219 -63.9669 241° Southwest  Level Estimated
Fri 07:45:00 AM 50.1658 -64.1209 240° Southwest  Level Estimated
Fri 07:46:00 AM 50.1094 -64.2745 240° Southwest  Level Estimated
Fri 07:47:00 AM 50.0529 -64.4278 240° Southwest  Level Estimated
Fri 07:48:00 AM 49.9961 -64.5807 240° Southwest  Level Estimated
Fri 07:49:00 AM 49.9392 -64.7332 240° Southwest  Level Estimated
Fri 07:50:00 AM 49.8820 -64.8854 240° Southwest  Level Estimated
Fri 07:51:00 AM 49.8247 -65.0372 240° Southwest  Level Estimated
Fri 07:52:00 AM 49.7671 -65.1887 240° Southwest  Level Estimated
Fri 07:53:00 AM 49.7094 -65.3398 239° Southwest  Level Estimated
Fri 07:54:00 AM 49.6515 -65.4905 239° Southwest  Level Estimated
Fri 07:55:00 AM 49.5933 -65.6409 239° Southwest  Level Estimated
Fri 07:56:00 AM 49.5350 -65.7909 239° Southwest  Level Estimated
Fri 07:57:00 AM 49.4765 -65.9406 239° Southwest  Level Estimated
Fri 07:58:00 AM 49.4178 -66.0899 239° Southwest  Level Estimated
Fri 07:59:00 AM 49.3589 -66.2388 239° Southwest  Level Estimated
Fri 08:00:00 AM 49.2998 -66.3874 239° Southwest  Level Estimated
Fri 08:01:00 AM 49.2405 -66.5357 239° Southwest  Level Estimated
Fri 08:02:00 AM 49.1810 -66.6835 238° Southwest  Level Estimated
Fri 08:03:00 AM 49.1213 -66.8311 238° Southwest  Level Estimated
Fri 08:04:00 AM 49.0615 -66.9782 238° Southwest  Level Estimated
Fri 08:05:00 AM 49.0014 -67.1251 238° Southwest  Level Estimated
Fri 08:06:00 AM 48.9412 -67.2715 238° Southwest  Level Estimated
Fri 08:07:00 AM 48.8808 -67.4176 238° Southwest  Level Estimated
Fri 08:08:00 AM 48.8202 -67.5634 238° Southwest  Level Estimated
Fri 08:09:00 AM 48.7594 -67.7088 238° Southwest  Level Estimated
Fri 08:10:00 AM 48.6985 -67.8538 238° Southwest  Level Estimated
Fri 08:11:00 AM 48.6373 -67.9985 237° Southwest  Level Estimated
Fri 08:12:00 AM 48.5760 -68.1429 237° Southwest  Level Estimated
Fri 08:13:00 AM 48.5145 -68.2869 237° Southwest  Level Estimated
Fri 08:14:00 AM 48.4529 -68.4305 237° Southwest  Level Estimated
Fri 08:15:00 AM 48.3910 -68.5738 237° Southwest  Level Estimated
Fri 08:16:00 AM 48.3289 -68.7168 237° Southwest  Level Estimated
Fri 08:17:00 AM 48.2667 -68.8594 237° Southwest  Level Estimated
Fri 08:18:00 AM 48.2043 -69.0016 237° Southwest  Level Estimated
Fri 08:19:00 AM 48.1418 -69.1435 237° Southwest  Level Estimated
Fri 08:20:00 AM 48.0790 -69.2851 236° Southwest  Level Estimated
Fri 08:21:00 AM 48.0161 -69.4263 236° Southwest  Level Estimated
Fri 08:22:00 AM 47.9531 -69.5672 236° Southwest  Level Estimated
Fri 08:23:00 AM 47.8898 -69.7077 236° Southwest  Level Estimated
Fri 08:24:00 AM 47.8264 -69.8479 236° Southwest  Level Estimated
Fri 08:25:00 AM 47.7628 -69.9878 236° Southwest  Level Estimated
Fri 08:26:00 AM 47.6990 -70.1273 236° Southwest  Level Estimated
Fri 08:27:00 AM 47.6351 -70.2664 236° Southwest  Level Estimated
Fri 08:28:00 AM 47.5710 -70.4052 236° Southwest  Level Estimated
Fri 08:29:00 AM 47.5067 -70.5437 236° Southwest  Level Estimated
Fri 08:30:00 AM 47.4423 -70.6819 235° Southwest  Level Estimated
Fri 08:31:00 AM 47.3777 -70.8197 235° Southwest  Level Estimated
Fri 08:32:00 AM 47.3129 -70.9571 235° Southwest  Level Estimated
Fri 08:33:00 AM 47.2480 -71.0943 235° Southwest  Level Estimated
Fri 08:34:00 AM 47.1829 -71.2310 235° Southwest  Level Estimated
Fri 08:35:00 AM 47.1176 -71.3675 235° Southwest  Level Estimated
Fri 08:36:00 AM 47.0522 -71.5036 235° Southwest  Level Estimated
Fri 08:37:00 AM 46.9866 -71.6394 235° Southwest  Level Estimated
Fri 08:38:00 AM 46.9209 -71.7749 235° Southwest  Level Estimated
Fri 08:39:00 AM 46.8550 -71.9100 235° Southwest  Level Estimated
Fri 08:40:00 AM 46.7889 -72.0448 234° Southwest  Level Estimated
Fri 08:41:00 AM 46.7227 -72.1792 234° Southwest  Level Estimated
Fri 08:42:00 AM 46.6563 -72.3134 234° Southwest  Level Estimated
Fri 08:43:00 AM 46.5898 -72.4472 234° Southwest  Level Estimated
Fri 08:44:00 AM 46.5231 -72.5806 234° Southwest  Level Estimated
Fri 08:45:00 AM 46.4563 -72.7138 234° Southwest  Level Estimated
Fri 08:46:00 AM 46.3893 -72.8466 234° Southwest  Level Estimated
Fri 08:47:00 AM 46.3221 -72.9791 234° Southwest  Level Estimated
Fri 08:48:00 AM 46.2548 -73.1113 234° Southwest  Level Estimated
Fri 08:49:00 AM 46.1874 -73.2431 234° Southwest  Level Estimated
Fri 08:50:00 AM 46.1198 -73.3746 233° Southwest  Level Estimated
Fri 08:51:00 AM 46.0520 -73.5058 233° Southwest  Level Estimated
Fri 08:52:00 AM 45.9841 -73.6367 233° Southwest  Level Estimated
Fri 08:53:00 AM 45.9161 -73.7672 233° Southwest  Level Estimated
Fri 08:54:00 AM 45.8479 -73.8975 233° Southwest  Level Estimated
Fri 08:55:00 AM 45.7795 -74.0274 233° Southwest  Level Estimated
Fri 08:56:00 AM 45.7110 -74.1570 233° Southwest  Level Estimated
Fri 08:57:00 AM 45.6424 -74.2862 233° Southwest  Level Estimated
Fri 08:58:00 AM 45.5736 -74.4152 233° Southwest  Level Estimated
Fri 08:59:00 AM 45.5047 -74.5438 233° Southwest  Level Estimated
Fri 09:00:00 AM 45.4356 -74.6722 233° Southwest  Level Estimated
Fri 09:01:00 AM 45.3664 -74.8002 232° Southwest  Level Estimated
Fri 09:02:00 AM 45.2970 -74.9279 232° Southwest  Level Estimated
Fri 09:03:00 AM 45.2275 -75.0553 232° Southwest  Level Estimated
Fri 09:04:00 AM 45.1579 -75.1824 232° Southwest  Level Estimated
Fri 09:05:00 AM 45.0881 -75.3091 232° Southwest  Level Estimated
Fri 09:06:00 AM 45.0182 -75.4356 232° Southwest  Level Estimated
Fri 09:07:00 AM 44.9481 -75.5617 232° Southwest  Level Estimated
Fri 09:08:00 AM 44.8779 -75.6876 232° Southwest  Level Estimated
Fri 09:09:00 AM 44.8076 -75.8131 232° Southwest  Level Estimated
Fri 09:10:00 AM 44.7371 -75.9383 232° Southwest  Level Estimated
Fri 09:11:00 AM 44.6665 -76.0632 232° Southwest  Level Estimated
Fri 09:12:00 AM 44.5958 -76.1879 231° Southwest  Level Estimated
Fri 09:13:00 AM 44.5249 -76.3122 231° Southwest  Level Estimated
Fri 09:14:00 AM 44.4539 -76.4362 231° Southwest  Level Estimated
Fri 09:15:00 AM 44.3827 -76.5599 231° Southwest  Level Estimated
Fri 09:16:00 AM 44.3114 -76.6833 231° Southwest  Level Estimated
Fri 09:17:00 AM 44.2400 -76.8064 231° Southwest  Level Estimated
Fri 09:18:00 AM 44.1684 -76.9292 231° Southwest  Level Estimated
Fri 09:19:00 AM 44.0968 -77.0518 231° Southwest  Level Estimated
Fri 09:20:00 AM 44.0250 -77.1740 231° Southwest  Level Estimated
Fri 09:21:00 AM 43.9530 -77.2959 231° Southwest  Level Estimated
Fri 09:22:00 AM 43.8810 -77.4175 231° Southwest  Level Estimated
Fri 09:23:00 AM 43.8088 -77.5388 231° Southwest  Level Estimated
Fri 09:24:00 AM 43.7364 -77.6599 230° Southwest  Level Estimated
Fri 09:25:00 AM 43.6640 -77.7806 230° Southwest  Level Estimated
Fri 09:26:00 AM 43.5914 -77.9011 230° Southwest  Level Estimated
Fri 09:27:00 AM 43.5187 -78.0213 230° Southwest  Level Estimated
Fri 09:28:00 AM 43.4458 -78.1411 230° Southwest  Level Estimated
Fri 09:29:00 AM 43.3729 -78.2607 230° Southwest  Level Estimated
Fri 09:30:00 AM 43.2998 -78.3800 230° Southwest  Level Estimated
Fri 09:31:00 AM 43.2266 -78.4990 230° Southwest  Level Estimated
Fri 09:32:00 AM 43.1533 -78.6178 230° Southwest  Level Estimated
Fri 09:33:00 AM 43.0798 -78.7362 230° Southwest  Level Estimated
Fri 09:34:00 AM 43.0062 -78.8544 230° Southwest  Level Estimated
Fri 09:35:00 AM 42.9325 -78.9722 230° Southwest  Level Estimated
Fri 09:36:00 AM 42.8587 -79.0898 229° Southwest  Level Estimated
Fri 09:37:00 AM 42.7848 -79.2071 229° Southwest  Level Estimated
Fri 09:38:00 AM 42.7107 -79.3242 229° Southwest  Level Estimated
Fri 09:39:00 AM 42.6366 -79.4409 229° Southwest  Level Estimated
Fri 09:40:00 AM 42.5623 -79.5574 229° Southwest  Level Estimated
Fri 09:41:00 AM 42.4879 -79.6736 229° Southwest  Level Estimated
Fri 09:42:00 AM 42.4133 -79.7895 229° Southwest  Level Estimated
Fri 09:43:00 AM 42.3387 -79.9052 229° Southwest  Level Estimated
Fri 09:44:00 AM 42.2639 -80.0205 229° Southwest  Level Estimated
Fri 09:45:00 AM 42.1890 -80.1356 229° Southwest  Level Estimated
Fri 09:46:00 AM 42.1141 -80.2505 229° Southwest  Level Estimated
Fri 09:47:00 AM 42.0390 -80.3650 229° Southwest  Level Estimated
Fri 09:48:00 AM 41.9637 -80.4793 229° Southwest  Level Estimated
Fri 09:49:00 AM 41.8884 -80.5933 228° Southwest  Level Estimated
Fri 09:50:00 AM 41.8130 -80.7070 228° Southwest  Level Estimated
Fri 09:51:00 AM 41.7374 -80.8205 228° Southwest  Level Estimated
Fri 09:52:00 AM 41.6617 -80.9337 228° Southwest  Level Estimated
Fri 09:53:00 AM 41.5859 -81.0467 228° Southwest  Level Estimated
Fri 09:54:00 AM 41.5101 -81.1593 228° Southwest  Level Estimated
Fri 09:55:00 AM 41.4341 -81.2718 228° Southwest  Level Estimated
Fri 09:56:00 AM 41.3579 -81.3839 228° Southwest  Level Estimated
Fri 09:57:00 AM 41.2817 -81.4958 228° Southwest  Level Estimated
Fri 09:58:00 AM 41.2054 -81.6074 228° Southwest  Level Estimated
Fri 09:59:00 AM 41.1290 -81.7188 228° Southwest  Level Estimated
Fri 10:00:00 AM 41.0524 -81.8299 228° Southwest  Level Estimated
Fri 10:01:00 AM 40.9758 -81.9408 228° Southwest  Level Estimated
Fri 10:02:00 AM 40.8991 -82.0513 227° Southwest  Level Estimated
Fri 10:03:00 AM 40.8222 -82.1617 227° Southwest  Level Estimated
Fri 10:04:00 AM 40.7452 -82.2718 227° Southwest  Level Estimated
Fri 10:05:00 AM 40.6682 -82.3816 227° Southwest  Level Estimated
Fri 10:06:00 AM 40.5910 -82.4912 227° Southwest  Level Estimated
Fri 10:07:00 AM 40.5137 -82.6005 227° Southwest  Level Estimated
Fri 10:08:00 AM 40.4364 -82.7095 227° Southwest  Level Estimated
Fri 10:09:00 AM 40.3589 -82.8184 227° Southwest  Level Estimated
Fri 10:10:00 AM 40.2813 -82.9269 227° Southwest  Level Estimated
Fri 10:11:00 AM 40.2036 -83.0353 227° Southwest  Level Estimated
Fri 10:12:00 AM 40.1259 -83.1433 227° Southwest  Level Estimated
Fri 10:13:00 AM 40.0480 -83.2512 227° Southwest  Level Estimated
Fri 10:14:00 AM 39.9700 -83.3587 227° Southwest  Level Estimated
Fri 10:15:00 AM 39.8919 -83.4661 227° Southwest  Level Estimated
Fri 10:16:00 AM 39.8137 -83.5732 226° Southwest  Level Estimated
Fri 10:17:00 AM 39.7355 -83.6800 226° Southwest  Level Estimated
Fri 10:18:00 AM 39.6571 -83.7866 226° Southwest  Level Estimated
Fri 10:19:00 AM 39.5786 -83.8930 226° Southwest  Level Estimated
Fri 10:20:00 AM 39.5000 -83.9991 226° Southwest  Level Estimated
Fri 10:21:00 AM 39.4214 -84.1049 226° Southwest  Level Estimated
Fri 10:22:00 AM 39.3426 -84.2106 226° Southwest  Level Estimated
Fri 10:23:00 AM 39.2637 -84.3160 226° Southwest  Level Estimated
Fri 10:24:00 AM 39.1848 -84.4212 226° Southwest  Level Estimated
Fri 10:25:00 AM 39.1058 -84.5261 226° Southwest  Level Estimated
Fri 10:26:00 AM 39.0266 -84.6308 226° Southwest  Level Estimated
Fri 10:27:00 AM 38.9474 -84.7352 226° Southwest  Level Estimated
Fri 10:28:00 AM 38.8681 -84.8394 226° Southwest  Level Estimated
Fri 10:29:00 AM 38.7886 -84.9434 226° Southwest  Level Estimated
Fri 10:30:00 AM 38.7091 -85.0472 226° Southwest  Level Estimated
Fri 10:31:00 AM 38.6295 -85.1507 225° Southwest  Level Estimated
Fri 10:32:00 AM 38.5498 -85.2540 225° Southwest  Level Estimated
Fri 10:33:00 AM 38.4701 -85.3571 225° Southwest  Level Estimated
Fri 10:34:00 AM 38.3902 -85.4600 225° Southwest  Level Estimated
Fri 10:35:00 AM 38.3102 -85.5626 225° Southwest  Level Estimated
Fri 10:36:00 AM 38.2302 -85.6650 225° Southwest  Level Estimated
Fri 10:37:00 AM 38.1741 -85.7365 225° Southwest  Level Estimated
Fri 10:38:00 AM 38.1741 -85.7365 168° South  Level Estimated
Fri 10:39:00 AM 38.1741 -85.7365 168° South  Level Estimated
Fri 10:40:00 AM 38.1741 -85.7365 168° South  Level Estimated
Fri 10:41:00 AM 38.1741 -85.7365 168° South  Level Estimated
Fri 10:42:00 AM 38.1741 -85.7365 168° South  Level Estimated
Fri 10:43:00 AM 38.1741 -85.7365 168° South  Level Estimated
Fri 10:44:00 AM 38.1741 -85.7365 168° South  Level Estimated
Fri 10:45:00 AM 38.1741 -85.7365 168° South  Level Estimated
Fri 10:46:00 AM 38.1741 -85.7365 168° South  Level Estimated
Fri 10:47:00 AM 38.1741 -85.7365 168° South  Level Estimated
Fri 10:48:00 AM 38.1741 -85.7365 168° South  Level Estimated
Fri 10:49:00 AM 38.1741 -85.7365 168° South  Level Estimated
Fri 10:50:00 AM 38.1741 -85.7365 168° South  Level Estimated
Fri 10:51:00 AM 38.1741 -85.7365 168° South  Level Estimated
Fri 10:52:00 AM 38.1741 -85.7365 168° South  Level Estimated
Fri 10:53:00 AM 38.1741 -85.7365 168° South  Level Estimated
Fri 10:54:00 AM 38.1741 -85.7365 168° South  Level Estimated
Fri 10:55:00 AM 38.1741 -85.7365 168° South  Level Estimated
Fri 10:56:00 AM 38.1741 -85.7365 168° South  Level Estimated
Fri 10:57:00 AM 38.1741 -85.7365 168° South  Level Estimated
Fri 10:58:00 AM 38.1741 -85.7365 168° South  Level Estimated
Fri 10:59:00 AM 38.1741 -85.7365 168° South  Level Estimated
Fri 11:00:00 AM 38.1741 -85.7365 168° South  Level Estimated
Fri 11:01:00 AM 38.1741 -85.7365 168° South  Level Estimated
Fri 11:02:00 AM 38.1741 -85.7365 168° South  Level Estimated
Fri 11:03:00 AM 38.1741 -85.7365 168° South  Level Estimated
Fri 11:04:00 AM 38.1741 -85.7365 168° South  Level Estimated
Fri 11:05:00 AM 38.1741 -85.7365 168° South  Level Estimated
Fri 11:06:00 AM 38.1741 -85.7365 168° South  Level Estimated
Fri 11:07:00 AM 38.1741 -85.7365 168° South  Level Estimated
Fri 11:08:00 AM 38.1741 -85.7365 168° South  Level Estimated
Fri 11:09:00 AM 38.1741 -85.7365 168° South  Level Estimated
Fri 11:10:00 AM 38.1741 -85.7365 168° South  Level Estimated
Fri 11:11:00 AM 38.1741 -85.7365 168° South  Level Estimated
Fri 11:12:00 AM 38.1741 -85.7365 168° South  Level Estimated
Fri 11:13:00 AM 38.1741 -85.7365 168° South  Level Estimated
Fri 11:14:00 AM 38.1741 -85.7365 168° South  Level Estimated
Fri 11:15:00 AM 38.1741 -85.7365 168° South  Level Estimated
Fri 11:16:00 AM 38.1741 -85.7365 168° South  Level Estimated
Fri 11:17:00 AM 38.1741 -85.7365 168° South  Level Estimated
Fri 11:18:00 AM 38.1741 -85.7365 168° South  Level Estimated
Fri 11:19:00 AM 38.1741 -85.7365 168° South  Level Estimated
Fri 11:20:00 AM 38.1741 -85.7365 168° South  Level Estimated
Fri 11:21:00 AM 38.1741 -85.7365 168° South  Level Estimated
Fri 11:22:00 AM 38.1741 -85.7365 168° South  Level Estimated
Fri 11:23:00 AM 38.1741 -85.7365 168° South  Level Estimated
Fri 11:24:00 AM 38.1741 -85.7365 168° South  Level Estimated
Fri 11:25:00 AM 38.1741 -85.7365 168° South  Level Estimated
Fri 11:26:00 AM 38.1741 -85.7365 168° South  Level Estimated
Fri 11:27:00 AM 38.1741 -85.7365 168° South  Level Estimated
Fri 11:28:00 AM 38.1741 -85.7365 168° South  Level Estimated
Fri 11:29:00 AM 38.1741 -85.7365 168° South  Level Estimated
Fri 11:30:00 AM 38.1741 -85.7365 168° South  Level Estimated
Fri 11:31:00 AM 38.1741 -85.7365 168° South  Level Estimated
Fri 11:32:00 AM 38.1741 -85.7365 168° South  Level Estimated
Fri 11:33:00 AM 38.1741 -85.7365 168° South  Level Estimated
Fri 11:34:00 AM 38.1741 -85.7365 168° South  Level Estimated
Fri 11:35:00 AM 38.1741 -85.7365 168° South  Level Estimated
Fri 11:36:00 AM 38.1741 -85.7365 168° South  Level Estimated
Fri 11:37:00 AM 38.1741 -85.7365 168° South  Level Estimated
Fri 11:38:00 AM 38.1741 -85.7365 168° South  Level Estimated
Fri 11:39:00 AM 38.1741 -85.7365 168° South  Level Estimated
Fri 11:40:00 AM 38.1741 -85.7365 168° South  Level Estimated
Fri 11:41:00 AM 38.1741 -85.7365 168° South  Level Estimated
Fri 11:42:00 AM 38.1741 -85.7365 168° South  Level Estimated
Fri 11:43:00 AM 38.1741 -85.7365 168° South  Level Estimated
Fri 11:44:00 AM 38.1741 -85.7365 168° South  Level Estimated
Fri 11:45:00 AM 38.1741 -85.7365 168° South  Level Estimated
Fri 11:46:00 AM 38.1741 -85.7365 168° South  Level Estimated
Fri 11:47:00 AM 38.1741 -85.7365 168° South  Level Estimated
Fri 11:48:00 AM 38.1741 -85.7365 168° South  Level Estimated
Fri 11:49:00 AM 38.1741 -85.7365 168° South  Level Estimated
Fri 11:50:00 AM 38.1741 -85.7365 168° South  Level Estimated
Fri 11:51:00 AM 38.1741 -85.7365 168° South  Level Estimated
Fri 11:52:00 AM 38.1741 -85.7365 168° South  Level Estimated
Fri 11:53:00 AM 38.1741 -85.7365 168° South  Level Estimated
Fri 11:54:00 AM 38.1741 -85.7365 168° South  Level Estimated
Fri 11:55:00 AM 38.1741 -85.7365 168° South  Level Estimated
Fri 11:56:00 AM 38.1741 -85.7365 168° South  Level Estimated
Fri 11:57:00 AM 38.1741 -85.7365 168° South  Level Estimated
Fri 11:58:00 AM 38.1741 -85.7365 168° South  Level Estimated

Login

Don't have an account? Register now (free) for customized features, flight alerts, and more!